Time;durP1;ratioP1;P1;durP2;ratioP2;P2;SDS_P1;SDS_P2;PMS_P1;PMS_P2;Temp;Humidity;BMP_temperature;BMP_pressure;BME280_temperature;BME280_humidity;BME280_pressure;Samples;Min_cycle;Max_cycle;Signal;HPM_P1;HPM_P2
2022/09/15 00:00:17;;;;;;;5.35;0.77;;;;;;;26.92;55.69;98264.84;2060981;28;20052;-54
2022/09/15 00:01:18;;;;;;;1.67;0.90;;;;;;;26.91;55.55;98269.47;2062146;28;20053;-54
2022/09/15 00:02:20;;;;;;;3.63;0.80;;;;;;;26.92;55.96;98262.13;2061624;28;20082;-54
2022/09/15 00:03:22;;;;;;;2.60;1.08;;;;;;;26.93;55.66;98267.28;2059665;28;20070;-54
2022/09/15 00:04:23;;;;;;;4.78;0.90;;;;;;;26.93;55.62;98264.56;2060505;28;20046;-53
2022/09/15 00:05:24;;;;;;;1.88;1.50;;;;;;;26.94;55.61;98263.50;2060647;28;20065;-53
2022/09/15 00:06:26;;;;;;;2.20;1.20;;;;;;;26.93;55.54;98263.75;2060847;28;20587;-53
2022/09/15 00:07:26;;;;;;;1.42;0.73;;;;;;;26.92;55.67;98264.84;2064061;28;20061;-54
2022/09/15 00:08:28;;;;;;;3.08;1.67;;;;;;;26.92;55.54;98268.38;2062391;28;20058;-51
2022/09/15 00:09:29;;;;;;;2.17;1.15;;;;;;;26.92;55.67;98265.66;2061041;28;20800;-52
2022/09/15 00:10:31;;;;;;;3.70;1.77;;;;;;;26.93;55.53;98264.56;2061728;28;20089;-52
2022/09/15 00:11:34;;;;;;;1.33;0.70;;;;;;;26.91;55.39;98274.91;2055649;28;20943;-54
2022/09/15 00:12:35;;;;;;;2.35;0.82;;;;;;;26.93;55.41;98274.63;2062635;28;20055;-55
2022/09/15 00:13:39;;;;;;;3.67;1.02;;;;;;;26.93;55.69;98267.28;2061779;28;20050;-52
2022/09/15 00:14:40;;;;;;;3.30;1.02;;;;;;;26.92;55.80;98267.56;2061924;28;20124;-52
2022/09/15 00:15:42;;;;;;;1.33;0.47;;;;;;;26.91;55.51;98274.91;2061413;28;22160;-56
2022/09/15 00:16:44;;;;;;;3.78;1.00;;;;;;;26.94;55.55;98277.09;2065171;28;20050;-54
2022/09/15 00:17:48;;;;;;;3.50;1.02;;;;;;;26.93;55.61;98274.63;2064088;28;20050;-52
2022/09/15 00:18:50;;;;;;;4.25;1.00;;;;;;;26.93;55.70;98274.63;2065106;28;20070;-52
2022/09/15 00:19:51;;;;;;;1.58;0.88;;;;;;;26.93;55.90;98280.88;2060686;28;20054;-52
2022/09/15 00:20:53;;;;;;;2.50;1.02;;;;;;;26.92;55.96;98281.97;2062678;28;20049;-56
2022/09/15 00:21:54;;;;;;;2.50;0.80;;;;;;;26.91;55.79;98276.78;2063443;28;20322;-52
2022/09/15 00:22:55;;;;;;;1.27;0.82;;;;;;;26.91;55.83;98282.22;2061584;28;20497;-54
2022/09/15 00:23:57;;;;;;;2.33;1.63;;;;;;;26.91;55.51;98284.94;2059973;28;20069;-57
2022/09/15 00:24:59;;;;;;;2.47;1.13;;;;;;;26.90;56.05;98277.88;2063005;28;20140;-58
2022/09/15 00:26:00;;;;;;;1.73;1.02;;;;;;;26.90;55.80;98278.69;2061975;28;21376;-55
2022/09/15 00:27:02;;;;;;;2.67;0.77;;;;;;;26.92;55.63;98281.97;2065155;28;20046;-54
2022/09/15 00:28:02;;;;;;;3.67;1.52;;;;;;;26.90;56.09;98284.16;2062612;28;20043;-54
2022/09/15 00:29:05;;;;;;;2.13;0.90;;;;;;;26.90;55.74;98284.16;2064132;28;20133;-55
2022/09/15 00:30:07;;;;;;;2.30;0.82;;;;;;;26.91;55.83;98295.84;2061767;28;20042;-57
2022/09/15 00:31:11;;;;;;;2.28;0.85;;;;;;;26.92;55.42;98284.69;2062144;28;20065;-56
2022/09/15 00:32:12;;;;;;;3.45;0.75;;;;;;;26.91;56.00;98284.94;2065481;28;20045;-56
2022/09/15 00:33:15;;;;;;;1.92;0.88;;;;;;;26.91;56.00;98285.78;2065417;28;20074;-58
2022/09/15 00:34:16;;;;;;;2.35;0.68;;;;;;;26.91;55.78;98280.34;2059300;28;20049;-58
2022/09/15 00:35:17;;;;;;;1.83;0.70;;;;;;;26.90;56.03;98275.97;2063233;28;20065;-55
2022/09/15 00:36:19;;;;;;;3.38;1.25;;;;;;;26.90;55.93;98273.25;2059767;28;20042;-58
2022/09/15 00:37:21;;;;;;;2.15;0.70;;;;;;;26.92;55.85;98276.53;2062836;28;20129;-56
2022/09/15 00:38:22;;;;;;;3.42;1.67;;;;;;;26.92;56.31;98273.00;2060767;28;20614;-57
2022/09/15 00:39:24;;;;;;;4.07;1.13;;;;;;;26.94;55.70;98278.97;2060722;28;20050;-49
2022/09/15 00:40:26;;;;;;;2.35;0.80;;;;;;;26.93;55.76;98277.34;2063476;28;20050;-52
2022/09/15 00:41:28;;;;;;;3.72;1.10;;;;;;;26.90;55.90;98275.97;2060736;28;20081;-54
2022/09/15 00:42:28;;;;;;;2.08;0.75;;;;;;;26.93;56.06;98269.19;2061567;28;20677;-59
2022/09/15 00:43:45;;;;;;;1.88;0.90;;;;;;;26.92;56.14;98279.25;2059522;28;20202;-53
2022/09/15 00:44:52;;;;;;;2.92;0.93;;;;;;;26.90;56.07;98281.41;2062616;28;20050;-52
2022/09/15 00:45:54;;;;;;;0.80;0.80;;;;;;;26.90;56.05;98270.53;2065319;28;20593;-54
2022/09/15 00:46:56;;;;;;;1.98;1.02;;;;;;;26.94;55.70;98279.81;2059962;28;20173;-55
2022/09/15 00:47:58;;;;;;;2.28;0.73;;;;;;;26.92;55.88;98281.97;2064235;28;20052;-54
2022/09/15 00:49:03;;;;;;;3.40;1.55;;;;;;;26.92;56.03;98276.53;2063471;28;20199;-51
2022/09/15 00:50:09;;;;;;;1.55;0.75;;;;;;;26.91;56.02;98274.91;2061421;28;20140;-49
2022/09/15 00:51:13;;;;;;;1.25;1.00;;;;;;;26.89;56.01;98271.63;2064358;28;20087;-54
2022/09/15 00:52:20;;;;;;;1.83;0.80;;;;;;;26.90;56.35;98265.09;2062463;28;20045;-50
2022/09/15 00:53:22;;;;;;;2.22;0.95;;;;;;;26.90;56.29;98256.94;2063410;28;20600;-56
2022/09/15 00:54:28;;;;;;;1.73;0.80;;;;;;;26.90;56.05;98248.75;2060477;28;20726;-53
2022/09/15 00:55:33;;;;;;;2.20;1.38;;;;;;;26.88;56.66;98241.94;2061248;28;20099;-56
2022/09/15 00:56:38;;;;;;;2.15;1.02;;;;;;;26.88;56.58;98231.06;2058121;28;20061;-55
2022/09/15 00:57:46;;;;;;;2.50;1.13;;;;;;;26.89;56.36;98219.13;2061927;28;21018;-59
2022/09/15 00:58:54;;;;;;;1.65;0.90;;;;;;;26.88;56.65;98221.00;2062197;28;20121;-58
2022/09/15 00:59:59;;;;;;;7.13;1.55;;;;;;;26.86;56.59;98225.09;2061609;28;20046;-57
2022/09/15 01:01:06;;;;;;;3.30;1.13;;;;;;;26.87;56.93;98224.81;2062055;28;20073;-56
2022/09/15 01:02:14;;;;;;;4.20;1.60;;;;;;;26.87;56.70;98229.44;2061491;28;20454;-54
2022/09/15 01:03:16;;;;;;;3.10;1.20;;;;;;;26.86;57.09;98227.81;2060631;28;20066;-58
2022/09/15 01:04:17;;;;;;;6.25;1.80;;;;;;;26.86;56.89;98222.38;2060920;28;20048;-55
2022/09/15 01:05:22;;;;;;;2.10;0.93;;;;;;;26.89;56.49;98222.66;2062223;28;20948;-56
2022/09/15 01:06:29;;;;;;;2.65;1.20;;;;;;;26.90;56.76;98228.91;2059972;28;20112;-56
2022/09/15 01:07:35;;;;;;;3.42;1.42;;;;;;;26.86;57.00;98231.34;2060657;28;20050;-54
2022/09/15 01:08:43;;;;;;;1.48;1.20;;;;;;;26.86;56.98;98227.81;2061249;28;20568;-56
2022/09/15 01:09:50;;;;;;;1.90;1.20;;;;;;;26.84;57.19;98233.50;2060473;28;20046;-54
2022/09/15 01:10:51;;;;;;;3.30;1.38;;;;;;;26.85;56.63;98228.88;2061984;28;20099;-50
2022/09/15 01:11:53;;;;;;;4.38;1.38;;;;;;;26.85;57.00;98228.88;2063777;28;20062;-55
2022/09/15 01:12:57;;;;;;;3.83;1.08;;;;;;;26.84;56.82;98230.78;2061014;28;20043;-55
2022/09/15 01:14:00;;;;;;;3.90;1.30;;;;;;;26.85;56.81;98231.59;2061301;28;20046;-55
2022/09/15 01:15:03;;;;;;;4.15;1.27;;;;;;;26.85;56.71;98229.69;2062000;28;20478;-52
2022/09/15 01:16:14;;;;;;;3.88;1.67;;;;;;;26.85;56.66;98224.25;2058513;28;20049;-58
2022/09/15 01:17:28;;;;;;;5.38;1.05;;;;;;;26.83;57.30;98212.84;2061419;28;20078;-59
2022/09/15 01:18:38;;;;;;;5.88;2.42;;;;;;;26.82;57.11;98203.03;2063644;28;20529;-53
2022/09/15 01:20:12;;;;;;;3.97;0.95;;;;;;;26.79;56.86;98200.84;2062826;28;20134;-52
2022/09/15 01:21:40;;;;;;;2.55;1.25;;;;;;;26.75;57.32;98194.31;2063017;28;20611;-54
2022/09/15 01:22:54;;;;;;;2.90;1.42;;;;;;;26.74;56.97;98182.63;2058235;28;20053;-54
2022/09/15 01:24:29;;;;;;;2.55;1.60;;;;;;;26.73;57.38;98166.56;2058899;28;20038;-58
2022/09/15 01:25:50;;;;;;;4.05;1.40;;;;;;;26.74;57.39;98169.03;2031146;28;20060;-55
2022/09/15 01:27:02;;;;;;;4.07;2.22;;;;;;;26.74;56.97;98166.28;2056807;28;20046;-57
2022/09/15 01:28:44;;;;;;;6.47;1.20;;;;;;;26.74;57.13;98160.00;2060543;28;20085;-59
2022/09/15 01:30:11;;;;;;;5.03;2.05;;;;;;;26.75;57.57;98137.19;2046624;28;20059;-51
2022/09/15 01:31:19;;;;;;;2.90;1.20;;;;;;;26.80;57.18;98125.47;2046763;28;20057;-56
2022/09/15 01:33:52;;;;;;;2.42;1.20;;;;;;;26.76;57.75;98108.06;2065122;28;20050;-52
2022/09/15 01:35:01;;;;;;;2.78;1.08;;;;;;;26.76;57.65;98114.31;2063262;28;20050;-52
2022/09/15 01:36:11;;;;;;;1.90;1.10;;;;;;;26.76;57.21;98108.88;2060308;28;20050;-56
2022/09/15 01:37:18;;;;;;;3.65;1.25;;;;;;;26.77;57.46;98110.50;2062364;28;20923;-57
2022/09/15 01:38:35;;;;;;;4.40;1.20;;;;;;;26.75;57.62;98109.97;2061473;28;20058;-56
2022/09/15 01:39:40;;;;;;;3.35;1.40;;;;;;;26.77;57.62;98105.06;2062911;28;20042;-55
2022/09/15 01:40:49;;;;;;;3.83;1.38;;;;;;;26.78;57.57;98108.63;2060780;28;20514;-58
2022/09/15 01:41:55;;;;;;;3.03;1.27;;;;;;;26.79;57.35;98113.78;2064457;28;20057;-54
2022/09/15 01:42:59;;;;;;;3.72;1.30;;;;;;;26.81;57.24;98106.16;2060382;28;20069;-57
2022/09/15 01:44:05;;;;;;;1.95;1.20;;;;;;;26.83;57.04;98117.59;2061833;28;20985;-59
2022/09/15 01:45:12;;;;;;;4.32;1.25;;;;;;;26.83;57.34;98127.66;2061192;28;20042;-55
2022/09/15 01:46:15;;;;;;;5.13;1.20;;;;;;;26.81;57.22;98111.63;2061972;28;20047;-56
2022/09/15 01:47:20;;;;;;;2.72;1.30;;;;;;;26.83;56.99;98108.59;2059743;28;20046;-53
2022/09/15 01:48:25;;;;;;;5.15;1.38;;;;;;;26.84;57.02;98116.50;2065515;28;20050;-53
2022/09/15 01:49:34;;;;;;;7.07;1.77;;;;;;;26.81;57.35;98100.72;2061164;28;20089;-53
2022/09/15 01:50:42;;;;;;;2.85;1.40;;;;;;;26.80;57.38;98077.34;2066178;28;20046;-55
2022/09/15 01:51:48;;;;;;;7.82;2.10;;;;;;;26.79;57.69;98070.25;2063322;28;20124;-53
2022/09/15 01:52:53;;;;;;;4.88;1.58;;;;;;;26.78;58.20;98052.31;2062618;28;20088;-58
2022/09/15 01:53:56;;;;;;;3.22;1.48;;;;;;;26.78;58.51;98051.50;2059631;28;20046;-52
2022/09/15 01:55:01;;;;;;;3.75;2.65;;;;;;;26.76;58.45;98050.94;2061936;28;20046;-55
2022/09/15 01:56:06;;;;;;;8.43;2.17;;;;;;;26.74;58.69;98045.75;2062908;28;20141;-56
2022/09/15 01:57:07;;;;;;;6.18;2.17;;;;;;;26.73;59.21;98055.00;2061839;28;20104;-49
2022/09/15 01:58:09;;;;;;;7.60;2.05;;;;;;;26.74;59.15;98056.63;2063605;28;20636;-53
2022/09/15 01:59:10;;;;;;;3.30;1.40;;;;;;;26.75;59.04;98052.84;2065696;28;20529;-55
2022/09/15 02:00:14;;;;;;;9.10;2.05;;;;;;;26.75;58.83;98050.13;2062275;28;20048;-53
2022/09/15 02:01:21;;;;;;;5.15;1.65;;;;;;;26.71;59.15;98051.75;2053531;28;20479;-61
2022/09/15 02:02:29;;;;;;;2.78;1.42;;;;;;;26.72;59.05;98042.50;2060406;28;20120;-56
2022/09/15 02:03:35;;;;;;;2.88;1.42;;;;;;;26.70;59.38;98061.00;2061615;28;20045;-56
2022/09/15 02:04:44;;;;;;;5.10;1.63;;;;;;;26.70;59.75;98115.41;2063673;28;20065;-55
2022/09/15 02:05:50;;;;;;;5.93;1.83;;;;;;;26.73;59.44;98120.31;2061905;28;20087;-58
2022/09/15 02:06:58;;;;;;;5.15;2.10;;;;;;;26.74;59.16;98100.16;2061763;28;20046;-55
2022/09/15 02:08:04;;;;;;;3.25;1.52;;;;;;;26.77;58.64;98101.53;2067365;28;20042;-51
2022/09/15 02:09:12;;;;;;;2.50;1.98;;;;;;;26.76;58.07;98098.00;2061194;28;20100;-51
2022/09/15 02:10:21;;;;;;;4.75;1.63;;;;;;;26.77;57.92;98090.66;2062911;28;20046;-53
2022/09/15 02:11:25;;;;;;;2.45;1.50;;;;;;;26.77;57.96;98086.00;2061682;28;20463;-56
2022/09/15 02:12:32;;;;;;;3.90;1.20;;;;;;;26.77;58.12;98074.31;2065529;28;20498;-49
2022/09/15 02:13:44;;;;;;;3.22;1.65;;;;;;;26.77;58.14;98068.88;2065672;28;20119;-52
2022/09/15 02:14:54;;;;;;;6.43;2.30;;;;;;;26.79;58.15;98070.25;2062816;28;20115;-55
2022/09/15 02:15:58;;;;;;;4.07;1.77;;;;;;;26.74;58.25;98052.03;2062809;28;20053;-54
2022/09/15 02:17:02;;;;;;;6.18;1.70;;;;;;;26.76;58.24;98050.94;2060558;28;20054;-55
2022/09/15 02:18:07;;;;;;;5.85;1.48;;;;;;;26.78;58.15;98046.03;2060387;28;20136;-54
2022/09/15 02:19:14;;;;;;;1.95;1.67;;;;;;;26.77;58.40;98047.13;2062053;28;20133;-52
2022/09/15 02:20:22;;;;;;;3.97;1.60;;;;;;;26.74;58.32;98040.31;2056617;28;20593;-55
2022/09/15 02:21:28;;;;;;;5.10;2.35;;;;;;;26.72;58.43;98035.16;2063521;28;20054;-56
2022/09/15 02:22:33;;;;;;;2.85;1.65;;;;;;;26.74;58.43;98034.88;2063636;28;20064;-55
2022/09/15 02:23:39;;;;;;;4.15;1.98;;;;;;;26.72;58.04;98032.44;2060463;28;20534;-55
2022/09/15 02:24:46;;;;;;;3.47;1.50;;;;;;;26.72;58.24;98034.34;2060526;28;20042;-53
2022/09/15 02:25:51;;;;;;;2.50;1.55;;;;;;;26.73;58.14;98030.53;2062489;28;20112;-51
2022/09/15 02:26:55;;;;;;;5.80;1.80;;;;;;;26.73;58.46;98027.81;2064142;28;20046;-55
2022/09/15 02:28:00;;;;;;;3.55;1.80;;;;;;;26.74;58.10;98045.75;2063800;28;20065;-56
2022/09/15 02:29:09;;;;;;;3.85;1.70;;;;;;;26.73;58.27;98042.22;2061647;28;20707;-51
2022/09/15 02:30:15;;;;;;;2.97;1.77;;;;;;;26.75;58.04;98058.28;2060098;28;20101;-55
2022/09/15 02:31:19;;;;;;;4.95;1.60;;;;;;;26.74;58.46;98062.06;2062272;28;20197;-56
2022/09/15 02:32:26;;;;;;;5.00;1.52;;;;;;;26.74;58.25;98064.78;2063486;28;20058;-56
2022/09/15 02:33:31;;;;;;;2.72;1.40;;;;;;;26.73;58.59;98063.19;2062264;28;20213;-53
2022/09/15 02:34:37;;;;;;;2.35;1.40;;;;;;;26.72;58.39;98065.09;2063802;28;20054;-58
2022/09/15 02:35:39;;;;;;;8.27;1.90;;;;;;;26.71;58.89;98057.19;2058085;28;20050;-57
2022/09/15 02:36:42;;;;;;;7.38;2.10;;;;;;;26.72;58.87;98072.44;2062789;28;20057;-57
2022/09/15 02:37:44;;;;;;;4.30;2.00;;;;;;;26.70;59.65;98066.44;2062619;28;21089;-51
2022/09/15 02:38:52;;;;;;;5.07;1.90;;;;;;;26.71;59.49;98057.19;2057292;28;20462;-57
2022/09/15 02:39:56;;;;;;;4.45;1.70;;;;;;;26.69;59.61;98059.34;2058941;28;20135;-55
2022/09/15 02:40:58;;;;;;;5.32;1.80;;;;;;;26.69;59.52;98043.03;2062162;28;20046;-55
2022/09/15 02:42:01;;;;;;;6.93;1.88;;;;;;;26.70;59.15;98045.50;2059318;28;20046;-55
2022/09/15 02:43:04;;;;;;;6.95;2.15;;;;;;;26.69;59.39;98035.72;2064245;28;20042;-52
2022/09/15 02:44:06;;;;;;;5.32;2.00;;;;;;;26.70;59.76;98039.25;2061462;28;20466;-56
2022/09/15 02:45:09;;;;;;;6.75;2.60;;;;;;;26.70;59.34;98044.69;2060529;28;20052;-54
2022/09/15 02:46:10;;;;;;;5.80;1.98;;;;;;;26.71;59.64;98049.03;2061525;28;20951;-59
2022/09/15 02:47:12;;;;;;;3.15;1.38;;;;;;;26.71;59.41;98043.56;2059717;28;20046;-55
2022/09/15 02:48:14;;;;;;;3.58;1.80;;;;;;;26.70;59.44;98039.25;2061599;28;20046;-57
2022/09/15 02:49:16;;;;;;;2.50;1.58;;;;;;;26.69;59.19;98035.72;2062091;28;20057;-60
2022/09/15 02:50:17;;;;;;;5.85;2.03;;;;;;;26.69;59.60;98040.31;2062589;28;20046;-50
2022/09/15 02:51:19;;;;;;;5.63;1.75;;;;;;;26.70;59.25;98042.75;2062806;28;20054;-51
2022/09/15 02:52:19;;;;;;;6.43;2.65;;;;;;;26.70;59.29;98044.69;2062709;28;20058;-56
2022/09/15 02:53:21;;;;;;;8.65;3.17;;;;;;;26.69;59.31;98052.03;2062417;28;20058;-56
2022/09/15 02:54:22;;;;;;;2.58;2.03;;;;;;;26.69;59.28;98038.44;2063800;28;20088;-54
2022/09/15 02:55:27;;;;;;;4.57;2.70;;;;;;;26.70;59.06;98044.69;2066055;28;20133;-54
2022/09/15 02:56:28;;;;;;;3.63;1.63;;;;;;;26.70;59.27;98044.69;2061208;28;20057;-55
2022/09/15 02:57:30;;;;;;;2.47;1.27;;;;;;;26.71;59.48;98046.28;2061785;28;20050;-52
2022/09/15 02:58:30;;;;;;;4.30;1.75;;;;;;;26.71;58.69;98041.66;2061214;28;20503;-56
2022/09/15 03:00:49;;;;;;;3.58;2.05;;;;;;;26.69;58.97;98032.16;2052237;28;20074;-53
2022/09/15 03:01:51;;;;;;;2.28;1.73;;;;;;;26.69;59.47;98046.59;2061664;28;20128;-58
2022/09/15 03:02:54;;;;;;;3.75;1.70;;;;;;;26.71;59.40;98049.03;2061743;28;20050;-52
2022/09/15 03:03:57;;;;;;;4.22;2.00;;;;;;;26.69;59.29;98043.03;2062548;28;20045;-54
2022/09/15 03:04:59;;;;;;;3.83;1.75;;;;;;;26.68;59.30;98042.22;2065445;28;20536;-52
2022/09/15 03:06:15;;;;;;;7.15;1.88;;;;;;;26.69;59.22;98032.16;2065828;28;20103;-56
2022/09/15 03:07:17;;;;;;;7.03;2.25;;;;;;;26.66;59.33;98025.38;2059574;28;22311;-49
2022/09/15 03:08:18;;;;;;;4.25;1.90;;;;;;;26.70;59.61;98028.34;2062345;28;20054;-52
2022/09/15 03:09:20;;;;;;;3.45;2.00;;;;;;;26.68;59.25;98027.81;2060713;28;20093;-53
2022/09/15 03:10:22;;;;;;;7.05;1.70;;;;;;;26.69;59.39;98026.69;2059035;28;20414;-55
2022/09/15 03:11:26;;;;;;;3.38;2.45;;;;;;;26.68;59.53;98020.44;2058697;28;20493;-57
2022/09/15 03:12:27;;;;;;;4.80;2.50;;;;;;;26.68;59.79;98011.47;2060287;28;20065;-53
2022/09/15 03:13:29;;;;;;;7.72;1.88;;;;;;;26.68;59.26;98014.19;2059543;28;21173;-50
2022/09/15 03:14:31;;;;;;;6.25;2.58;;;;;;;26.67;59.34;98004.41;2061371;28;20062;-54
2022/09/15 03:15:33;;;;;;;6.28;2.10;;;;;;;26.69;59.29;97994.91;2059902;28;20081;-48
2022/09/15 03:16:34;;;;;;;6.28;2.03;;;;;;;26.69;59.74;97994.06;2066010;28;20478;-55
2022/09/15 03:17:36;;;;;;;5.50;2.65;;;;;;;26.69;59.36;97989.47;2060287;28;20054;-54
2022/09/15 03:18:38;;;;;;;5.35;3.15;;;;;;;26.68;59.64;97981.56;2061250;28;20053;-55
2022/09/15 03:19:41;;;;;;;5.75;2.38;;;;;;;26.67;59.86;97985.38;2061801;28;20061;-59
2022/09/15 03:20:42;;;;;;;3.45;2.65;;;;;;;26.66;59.85;97981.84;2065800;28;20104;-54
2022/09/15 03:21:43;;;;;;;6.15;1.92;;;;;;;26.67;59.97;97983.47;2060033;28;20054;-55
2022/09/15 03:22:44;;;;;;;5.13;2.58;;;;;;;26.68;59.76;97993.25;2061757;28;20096;-56
2022/09/15 03:23:46;;;;;;;11.20;2.55;;;;;;;26.66;60.15;97981.84;2061047;28;20062;-57
2022/09/15 03:24:47;;;;;;;6.22;2.15;;;;;;;26.65;60.49;97982.91;2055480;28;20054;-58
2022/09/15 03:25:49;;;;;;;3.75;1.80;;;;;;;26.63;60.41;97979.66;2059181;28;21146;-56
2022/09/15 03:26:50;;;;;;;6.20;2.10;;;;;;;26.65;60.32;97987.53;2062483;28;20042;-56
2022/09/15 03:27:51;;;;;;;8.02;2.45;;;;;;;26.65;60.17;97990.25;2062163;28;20081;-55
2022/09/15 03:28:52;;;;;;;6.30;2.22;;;;;;;26.65;60.33;97987.53;2058889;28;20096;-51
2022/09/15 03:29:54;;;;;;;5.50;1.83;;;;;;;26.65;60.24;97999.25;2058574;28;20057;-56
2022/09/15 03:30:56;;;;;;;4.72;1.98;;;;;;;26.66;60.32;98002.78;2061041;28;20053;-59
2022/09/15 03:31:58;;;;;;;6.70;2.38;;;;;;;26.66;59.88;98000.88;2064102;28;20054;-54
2022/09/15 03:32:58;;;;;;;6.20;2.42;;;;;;;26.66;60.09;98000.03;2061732;28;20418;-53
2022/09/15 03:34:00;;;;;;;5.65;1.75;;;;;;;26.66;59.87;97991.88;2060357;28;20056;-56
2022/09/15 03:35:03;;;;;;;5.00;1.70;;;;;;;26.64;60.02;97999.53;2062464;28;20057;-58
2022/09/15 03:36:06;;;;;;;7.13;2.47;;;;;;;26.66;59.99;97994.59;2063497;28;20078;-51
2022/09/15 03:37:07;;;;;;;5.25;2.25;;;;;;;26.64;60.23;97997.63;2060806;28;20046;-53
2022/09/15 03:38:08;;;;;;;3.65;2.08;;;;;;;26.64;60.04;97991.38;2063832;28;20070;-52
2022/09/15 03:39:11;;;;;;;5.07;2.30;;;;;;;26.64;60.33;97991.38;2062954;28;20058;-52
2022/09/15 03:40:13;;;;;;;7.68;2.35;;;;;;;26.63;59.97;97978.84;2063623;28;20070;-52
2022/09/15 03:41:13;;;;;;;2.15;1.48;;;;;;;26.63;60.40;97979.66;2062779;28;20478;-54
2022/09/15 03:42:15;;;;;;;3.45;2.03;;;;;;;26.62;60.45;97996.25;2060937;28;20054;-54
2022/09/15 03:43:16;;;;;;;8.05;2.45;;;;;;;26.63;60.55;97995.97;2061530;28;20050;-54
2022/09/15 03:44:18;;;;;;;7.63;2.08;;;;;;;26.63;60.46;97993.25;2062445;28;20054;-58
2022/09/15 03:45:19;;;;;;;6.13;2.85;;;;;;;26.62;60.22;97996.25;2066579;28;20061;-50
2022/09/15 03:46:20;;;;;;;6.05;1.80;;;;;;;26.63;60.20;97997.88;2063159;28;20046;-52
2022/09/15 03:47:21;;;;;;;5.82;2.10;;;;;;;26.65;60.09;98012.03;2061507;28;20046;-55
2022/09/15 03:48:23;;;;;;;6.40;1.95;;;;;;;26.65;60.57;98020.19;2063494;28;20050;-51
2022/09/15 03:49:24;;;;;;;5.00;2.13;;;;;;;26.62;60.12;98020.72;2066991;28;20057;-51
2022/09/15 03:50:28;;;;;;;6.72;3.10;;;;;;;26.63;60.53;98023.16;2063107;28;20486;-54
2022/09/15 03:51:28;;;;;;;4.95;2.30;;;;;;;26.64;60.25;98024.00;2057804;28;20760;-58
2022/09/15 03:52:31;;;;;;;6.28;3.25;;;;;;;26.62;60.56;98032.41;2063402;28;20058;-56
2022/09/15 03:53:33;;;;;;;8.45;2.47;;;;;;;26.63;60.33;98036.75;2062282;28;20483;-58
2022/09/15 03:54:35;;;;;;;6.10;2.70;;;;;;;26.63;60.34;98028.59;2060577;28;20058;-56
2022/09/15 03:55:36;;;;;;;6.07;1.98;;;;;;;26.63;60.26;98028.59;2060924;28;20054;-57
2022/09/15 03:56:38;;;;;;;6.50;2.97;;;;;;;26.65;60.54;98031.88;2059091;28;20050;-51
2022/09/15 03:57:39;;;;;;;4.43;1.75;;;;;;;26.62;60.34;98031.59;2062624;28;20119;-52
2022/09/15 03:58:41;;;;;;;5.57;2.40;;;;;;;26.63;60.43;98038.69;2064130;28;20052;-57
2022/09/15 03:59:42;;;;;;;9.07;2.30;;;;;;;26.64;60.63;98040.31;2060627;28;20061;-51
2022/09/15 04:00:44;;;;;;;3.88;2.63;;;;;;;26.63;60.80;98049.56;2065666;28;20042;-57
2022/09/15 04:01:45;;;;;;;4.85;2.25;;;;;;;26.64;60.26;98043.03;2062155;28;20065;-53
2022/09/15 04:02:47;;;;;;;5.05;2.20;;;;;;;26.63;60.59;98041.41;2067481;28;20042;-55
2022/09/15 04:03:48;;;;;;;3.67;2.17;;;;;;;26.65;60.52;98042.75;2068102;28;20107;-54
2022/09/15 04:04:50;;;;;;;4.97;2.53;;;;;;;26.64;60.62;98038.41;2062068;28;20062;-53
2022/09/15 04:05:52;;;;;;;7.35;2.03;;;;;;;26.63;60.01;98042.22;2059508;28;20627;-52
2022/09/15 04:06:54;;;;;;;5.68;1.83;;;;;;;26.63;60.38;98038.69;2063333;28;20046;-50
2022/09/15 04:07:54;;;;;;;3.42;1.55;;;;;;;26.63;60.34;98044.91;2066897;28;20092;-56
2022/09/15 04:08:56;;;;;;;5.68;1.98;;;;;;;26.63;60.64;98033.22;2066083;28;20050;-59
2022/09/15 04:09:57;;;;;;;6.90;2.40;;;;;;;26.63;60.67;98039.47;2065569;28;20133;-55
2022/09/15 04:11:00;;;;;;;7.03;2.20;;;;;;;26.63;60.71;98036.75;2064824;28;20050;-55
2022/09/15 04:12:01;;;;;;;4.63;2.20;;;;;;;26.66;60.49;98043.56;2060390;28;20049;-52
2022/09/15 04:13:02;;;;;;;6.07;3.13;;;;;;;26.69;60.58;98040.31;2059077;28;20073;-51
2022/09/15 04:14:03;;;;;;;5.15;2.13;;;;;;;26.69;60.13;98041.16;2065218;28;20125;-56
2022/09/15 04:15:06;;;;;;;4.47;2.72;;;;;;;26.69;60.44;98043.03;2066040;28;22037;-55
2022/09/15 04:16:09;;;;;;;5.15;1.80;;;;;;;26.66;59.80;98041.69;2066265;28;20058;-52
2022/09/15 04:17:10;;;;;;;5.45;2.10;;;;;;;26.68;60.15;98036.78;2064158;28;20425;-54
2022/09/15 04:18:11;;;;;;;7.00;2.20;;;;;;;26.71;59.88;98033.50;2069544;28;20096;-58
2022/09/15 04:19:13;;;;;;;4.60;1.63;;;;;;;26.71;59.50;98040.84;2064975;28;20093;-53
2022/09/15 04:20:16;;;;;;;3.50;2.28;;;;;;;26.70;59.51;98042.75;2065979;28;20050;-55
2022/09/15 04:21:21;;;;;;;4.30;1.90;;;;;;;26.71;59.51;98041.66;2064035;28;20497;-59
2022/09/15 04:22:22;;;;;;;5.43;1.77;;;;;;;26.70;59.58;98040.03;2063228;28;20595;-55
2022/09/15 04:23:24;;;;;;;5.72;2.50;;;;;;;26.72;59.43;98037.88;2064540;28;20061;-59
2022/09/15 04:24:25;;;;;;;2.95;1.95;;;;;;;26.71;59.81;98033.50;2067550;28;20121;-57
2022/09/15 04:25:28;;;;;;;4.45;2.15;;;;;;;26.71;59.50;98032.69;2064760;28;20763;-56
2022/09/15 04:26:30;;;;;;;3.22;2.28;;;;;;;26.74;59.47;98032.16;2063113;28;20108;-57
2022/09/15 04:27:34;;;;;;;4.20;2.25;;;;;;;26.72;59.32;98028.91;2064620;28;20058;-53
2022/09/15 04:28:36;;;;;;;8.23;1.98;;;;;;;26.73;59.48;98033.25;2067451;28;20116;-53
2022/09/15 04:29:37;;;;;;;8.00;2.60;;;;;;;26.72;60.11;98032.44;2062042;28;20046;-57
2022/09/15 04:30:38;;;;;;;14.07;2.63;;;;;;;26.74;60.83;98027.56;2058176;28;20069;-55
2022/09/15 04:31:40;;;;;;;10.07;2.45;;;;;;;26.77;60.23;98034.31;2059894;28;20505;-53
2022/09/15 04:32:40;;;;;;;8.32;2.38;;;;;;;26.81;59.58;98035.44;2060396;28;20092;-55
2022/09/15 04:33:43;;;;;;;15.52;3.22;;;;;;;26.82;60.20;98036.25;2063421;28;20049;-56
2022/09/15 04:34:44;;;;;;;10.73;2.92;;;;;;;26.83;60.09;98038.72;2057832;28;20219;-57
2022/09/15 04:35:47;;;;;;;14.88;3.67;;;;;;;26.82;60.26;98042.50;2060912;28;20126;-56
2022/09/15 04:36:49;;;;;;;7.35;2.78;;;;;;;26.81;59.92;98040.88;2061549;28;23679;-52
2022/09/15 04:37:51;;;;;;;9.23;3.08;;;;;;;26.81;59.95;98046.31;2063943;28;20126;-51
2022/09/15 04:38:52;;;;;;;6.90;1.60;;;;;;;26.79;59.67;98053.09;2064104;28;20042;-50
2022/09/15 04:39:53;;;;;;;10.68;2.28;;;;;;;26.78;59.50;98054.22;2065181;28;20529;-55
2022/09/15 04:40:55;;;;;;;9.57;2.63;;;;;;;26.77;59.45;98063.44;2065182;28;20065;-53
2022/09/15 04:41:56;;;;;;;6.45;2.53;;;;;;;26.78;59.43;98062.38;2063675;28;20438;-54
2022/09/15 04:42:57;;;;;;;11.52;2.47;;;;;;;26.75;59.63;98063.72;2059397;28;20111;-57
2022/09/15 04:43:59;;;;;;;12.68;3.33;;;;;;;26.74;59.58;98067.50;2063924;28;20065;-55
2022/09/15 04:45:00;;;;;;;9.40;2.83;;;;;;;26.74;59.47;98067.50;2063368;28;20046;-58
2022/09/15 04:46:02;;;;;;;6.88;2.55;;;;;;;26.74;59.23;98067.50;2061667;28;20046;-53
2022/09/15 04:47:03;;;;;;;10.20;3.10;;;;;;;26.71;59.66;98062.63;2055670;28;20464;-54
2022/09/15 04:48:05;;;;;;;9.82;2.97;;;;;;;26.70;59.80;98061.00;2061981;28;20425;-58
2022/09/15 04:49:05;;;;;;;8.85;2.88;;;;;;;26.70;59.98;98066.44;2058178;28;20126;-59
2022/09/15 04:50:08;;;;;;;6.45;3.33;;;;;;;26.70;59.26;98066.44;2065426;28;20135;-53
2022/09/15 04:51:12;;;;;;;8.90;2.20;;;;;;;26.74;58.93;98067.50;2063475;28;20042;-53
2022/09/15 04:52:15;;;;;;;7.38;2.67;;;;;;;26.72;59.53;98064.28;2062543;28;20517;-55
2022/09/15 04:53:16;;;;;;;10.18;2.53;;;;;;;26.70;59.04;98069.16;2059489;28;20137;-52
2022/09/15 04:54:18;;;;;;;7.57;2.35;;;;;;;26.73;59.16;98076.78;2062939;28;20108;-54
2022/09/15 04:55:18;;;;;;;7.38;3.03;;;;;;;26.72;59.03;98075.16;2063616;28;20057;-52
2022/09/15 04:56:22;;;;;;;9.30;3.38;;;;;;;26.71;59.38;98077.03;2061238;28;20050;-58
2022/09/15 04:57:23;;;;;;;3.65;1.85;;;;;;;26.69;59.35;98086.56;2057404;28;20627;-56
2022/09/15 04:58:24;;;;;;;8.30;2.65;;;;;;;26.70;58.93;98090.91;2048314;28;20058;-56
2022/09/15 04:59:25;;;;;;;5.53;2.50;;;;;;;26.68;59.10;98096.63;2058271;28;20084;-55
2022/09/15 05:00:27;;;;;;;6.32;2.13;;;;;;;26.69;58.99;98092.00;2058977;28;20116;-56
2022/09/15 05:01:30;;;;;;;4.80;2.20;;;;;;;26.71;59.08;98095.25;2060161;28;20506;-51
2022/09/15 05:02:32;;;;;;;10.50;2.70;;;;;;;26.70;59.12;98097.16;2062995;28;20057;-56
2022/09/15 05:03:35;;;;;;;6.30;2.10;;;;;;;26.71;59.02;98100.69;2055863;28;20065;-55